Time;durP1;ratioP1;P1;durP2;ratioP2;P2;SDS_P1;SDS_P2;PMS_P1;PMS_P2;Temp;Humidity;BMP_temperature;BMP_pressure;BME280_temperature;BME280_humidity;BME280_pressure;Samples;Min_cycle;Max_cycle;Signal;HPM_P1;HPM_P2
2023/04/03 00:01:48;;;;;;;5.45;4.47;;;;;;;;;;6276978;22;20023;-67
2023/04/03 00:04:16;;;;;;;6.70;5.10;;;;;;;;;;6277078;22;20023;-68
2023/04/03 00:06:43;;;;;;;9.18;4.88;;;;;;;;;;6249943;22;20051;-66
2023/04/03 00:09:11;;;;;;;6.47;4.90;;;;;;;;;;6277299;22;20441;-67
2023/04/03 00:11:38;;;;;;;6.97;5.13;;;;;;;;;;6276875;22;20045;-67
2023/04/03 00:14:06;;;;;;;7.15;4.90;;;;;;;;;;6276628;22;20016;-66
2023/04/03 00:16:33;;;;;;;8.27;4.82;;;;;;;;;;6249607;22;20031;-66
2023/04/03 00:19:01;;;;;;;7.13;5.32;;;;;;;;;;6277127;22;20065;-66
2023/04/03 00:21:28;;;;;;;5.75;4.75;;;;;;;;;;6276909;22;20016;-67
2023/04/03 00:23:55;;;;;;;6.47;4.82;;;;;;;;;;6277035;22;20078;-68
2023/04/03 00:26:23;;;;;;;7.30;5.07;;;;;;;;;;6249801;22;20019;-67
2023/04/03 00:28:50;;;;;;;7.00;4.43;;;;;;;;;;6276669;22;20438;-67
2023/04/03 00:31:18;;;;;;;6.20;4.55;;;;;;;;;;6249483;22;20400;-68
2023/04/03 00:33:46;;;;;;;6.85;4.90;;;;;;;;;;6249545;22;20019;-67
2023/04/03 00:36:14;;;;;;;7.15;4.22;;;;;;;;;;6276458;22;20445;-67
2023/04/03 00:38:41;;;;;;;5.75;4.05;;;;;;;;;;6249296;22;20023;-67
2023/04/03 00:41:09;;;;;;;6.03;4.30;;;;;;;;;;6249374;22;20054;-68
2023/04/03 00:43:36;;;;;;;6.90;4.47;;;;;;;;;;6249498;22;20389;-68
2023/04/03 00:46:04;;;;;;;5.32;4.30;;;;;;;;;;6249465;22;20019;-67
2023/04/03 00:48:35;;;;;;;6.47;4.68;;;;;;;;;;6249369;22;20023;-67
2023/04/03 00:51:04;;;;;;;6.30;4.65;;;;;;;;;;6276580;22;20091;-67
2023/04/03 00:53:36;;;;;;;5.53;4.28;;;;;;;;;;6224588;22;20016;-67
2023/04/03 00:56:06;;;;;;;6.25;4.35;;;;;;;;;;6249386;22;20024;-67
2023/04/03 00:58:37;;;;;;;7.93;4.82;;;;;;;;;;6276557;22;20369;-67
2023/04/03 01:01:07;;;;;;;5.97;4.65;;;;;;;;;;6249457;22;20031;-67
2023/04/03 01:03:34;;;;;;;6.55;4.50;;;;;;;;;;6276510;22;20019;-66
2023/04/03 01:06:04;;;;;;;7.60;4.60;;;;;;;;;;6249192;22;20099;-67
2023/04/03 01:08:32;;;;;;;6.07;4.75;;;;;;;;;;6249287;22;20023;-67
2023/04/03 01:10:59;;;;;;;6.50;4.60;;;;;;;;;;6249071;22;20026;-67
2023/04/03 01:13:30;;;;;;;5.85;4.50;;;;;;;;;;6249045;22;20019;-67
2023/04/03 01:16:01;;;;;;;6.22;4.43;;;;;;;;;;6249127;22;20020;-67
2023/04/03 01:18:28;;;;;;;7.10;4.75;;;;;;;;;;6248320;22;20334;-67
2023/04/03 01:20:56;;;;;;;5.38;4.07;;;;;;;;;;6247751;22;20028;-67
2023/04/03 01:23:29;;;;;;;6.32;3.97;;;;;;;;;;6247768;22;20334;-67
2023/04/03 01:25:57;;;;;;;6.10;4.35;;;;;;;;;;6274318;22;20054;-66
2023/04/03 01:28:30;;;;;;;6.80;4.30;;;;;;;;;;6247832;22;20020;-66
2023/04/03 01:31:01;;;;;;;8.35;4.68;;;;;;;;;;6247770;22;20075;-67
2023/04/03 01:33:32;;;;;;;4.90;4.00;;;;;;;;;;6247777;22;20034;-66
2023/04/03 01:36:01;;;;;;;5.10;3.90;;;;;;;;;;6247527;22;20020;-66
2023/04/03 01:38:29;;;;;;;6.85;3.97;;;;;;;;;;6223247;22;20019;-66
2023/04/03 01:40:57;;;;;;;5.53;4.00;;;;;;;;;;6247902;22;20019;-66
2023/04/03 01:43:25;;;;;;;5.20;3.90;;;;;;;;;;6247699;22;20016;-67
2023/04/03 01:45:54;;;;;;;5.68;4.30;;;;;;;;;;6247722;22;20429;-67
2023/04/03 01:48:22;;;;;;;4.95;3.92;;;;;;;;;;6247797;22;20027;-67
2023/04/03 01:50:49;;;;;;;5.57;4.05;;;;;;;;;;6274636;22;20046;-67
2023/04/03 01:53:18;;;;;;;5.95;4.45;;;;;;;;;;6247855;22;20073;-67
2023/04/03 01:55:45;;;;;;;6.55;4.20;;;;;;;;;;6274770;22;20319;-67
2023/04/03 01:58:13;;;;;;;6.40;4.20;;;;;;;;;;6247501;22;20020;-67
2023/04/03 02:00:40;;;;;;;6.90;4.75;;;;;;;;;;6248032;22;20026;-67
2023/04/03 02:03:08;;;;;;;5.15;4.47;;;;;;;;;;6248046;22;20027;-67
2023/04/03 02:05:35;;;;;;;6.63;4.70;;;;;;;;;;6247893;22;20015;-67
2023/04/03 02:08:03;;;;;;;6.97;5.03;;;;;;;;;;6274998;22;20380;-67
2023/04/03 02:10:30;;;;;;;8.77;4.90;;;;;;;;;;6274767;22;20121;-67
2023/04/03 02:12:58;;;;;;;7.00;5.55;;;;;;;;;;6247548;22;20020;-67
2023/04/03 02:15:25;;;;;;;7.30;4.68;;;;;;;;;;6247609;22;20093;-67
2023/04/03 02:17:53;;;;;;;6.00;4.68;;;;;;;;;;6194864;22;1226941;-67
2023/04/03 02:20:21;;;;;;;8.18;4.80;;;;;;;;;;6248914;22;20020;-67
2023/04/03 02:22:49;;;;;;;6.22;4.70;;;;;;;;;;6248855;22;20039;-67
2023/04/03 02:25:18;;;;;;;5.78;4.30;;;;;;;;;;6275794;22;20377;-67
2023/04/03 02:27:45;;;;;;;6.78;4.88;;;;;;;;;;6248779;22;20559;-67
2023/04/03 02:30:14;;;;;;;6.50;4.60;;;;;;;;;;6275877;22;20015;-67
2023/04/03 02:32:42;;;;;;;7.13;4.70;;;;;;;;;;6249004;22;20016;-68
2023/04/03 02:35:10;;;;;;;6.63;4.43;;;;;;;;;;6248427;22;20030;-67
2023/04/03 02:37:39;;;;;;;5.15;4.10;;;;;;;;;;6248745;22;20046;-67
2023/04/03 02:40:07;;;;;;;5.82;4.20;;;;;;;;;;6250791;22;20445;-68
2023/04/03 02:42:36;;;;;;;6.00;4.45;;;;;;;;;;6251063;22;20029;-68
2023/04/03 02:45:03;;;;;;;5.25;4.22;;;;;;;;;;6250452;22;20019;-68
2023/04/03 02:47:31;;;;;;;7.65;4.43;;;;;;;;;;6277748;22;20566;-68
2023/04/03 02:49:59;;;;;;;5.82;4.32;;;;;;;;;;6250493;22;20442;-67
2023/04/03 02:52:26;;;;;;;5.40;4.32;;;;;;;;;;6250499;22;20449;-68
2023/04/03 02:54:57;;;;;;;5.90;5.15;;;;;;;;;;6250740;22;20142;-68
2023/04/03 02:57:25;;;;;;;6.97;4.35;;;;;;;;;;6250827;22;20019;-67
2023/04/03 02:59:52;;;;;;;9.23;4.95;;;;;;;;;;6250738;22;20027;-67
2023/04/03 03:02:20;;;;;;;6.95;4.70;;;;;;;;;;6250478;22;20111;-67
2023/04/03 03:04:48;;;;;;;7.05;4.90;;;;;;;;;;6250468;22;20389;-68
2023/04/03 03:07:15;;;;;;;7.18;4.88;;;;;;;;;;6250886;22;20066;-68
2023/04/03 03:09:43;;;;;;;8.43;5.00;;;;;;;;;;6250394;22;20023;-67
2023/04/03 03:12:11;;;;;;;5.50;4.45;;;;;;;;;;6277571;22;20526;-67
2023/04/03 03:14:38;;;;;;;7.43;5.28;;;;;;;;;;6250334;22;20020;-67
2023/04/03 03:17:05;;;;;;;7.82;5.10;;;;;;;;;;6250212;22;20333;-67
2023/04/03 03:19:33;;;;;;;7.50;5.03;;;;;;;;;;6277621;22;20562;-67
2023/04/03 03:22:01;;;;;;;9.65;6.75;;;;;;;;;;6250168;22;20082;-67
2023/04/03 03:24:29;;;;;;;8.07;6.47;;;;;;;;;;6250352;22;20015;-67
2023/04/03 03:26:56;;;;;;;8.60;6.22;;;;;;;;;;6250422;22;20035;-67
2023/04/03 03:29:24;;;;;;;10.60;6.53;;;;;;;;;;6250424;22;20043;-68
2023/04/03 03:31:52;;;;;;;10.65;6.15;;;;;;;;;;6250333;22;20019;-67
2023/04/03 03:34:20;;;;;;;11.43;7.10;;;;;;;;;;6250172;22;20115;-67
2023/04/03 03:36:47;;;;;;;9.63;7.07;;;;;;;;;;6250094;22;20023;-67
2023/04/03 03:39:15;;;;;;;10.32;6.05;;;;;;;;;;6250063;22;20026;-67
2023/04/03 03:41:42;;;;;;;10.25;5.70;;;;;;;;;;6249924;22;20039;-67
2023/04/03 03:44:10;;;;;;;8.48;5.80;;;;;;;;;;6250389;22;20382;-67
2023/04/03 03:46:37;;;;;;;10.13;6.22;;;;;;;;;;6250201;22;20081;-68
2023/04/03 03:49:05;;;;;;;7.13;5.55;;;;;;;;;;6250110;22;20046;-67
2023/04/03 03:51:33;;;;;;;10.18;6.18;;;;;;;;;;6250246;22;20046;-68
2023/04/03 03:54:00;;;;;;;10.00;6.15;;;;;;;;;;6250079;22;20202;-68
2023/04/03 03:56:28;;;;;;;8.68;5.97;;;;;;;;;;6249729;22;20024;-67
2023/04/03 03:58:56;;;;;;;10.02;6.75;;;;;;;;;;6277237;22;20098;-67
2023/04/03 04:01:24;;;;;;;9.82;6.63;;;;;;;;;;6250054;22;20073;-68
2023/04/03 04:03:53;;;;;;;10.15;6.35;;;;;;;;;;6277017;22;20012;-68
2023/04/03 04:06:26;;;;;;;8.30;6.07;;;;;;;;;;6249817;22;20020;-68
2023/04/03 04:08:57;;;;;;;11.52;6.78;;;;;;;;;;6249801;22;20016;-68
2023/04/03 04:11:25;;;;;;;9.80;6.40;;;;;;;;;;6249838;22;20034;-68
2023/04/03 04:13:53;;;;;;;10.15;6.40;;;;;;;;;;6249444;22;20077;-68
2023/04/03 04:16:25;;;;;;;9.32;6.30;;;;;;;;;;6249707;22;20020;-69
2023/04/03 04:18:53;;;;;;;10.70;6.32;;;;;;;;;;6249903;22;20372;-68
2023/04/03 04:21:22;;;;;;;12.00;7.32;;;;;;;;;;6249675;22;20020;-68
2023/04/03 04:23:51;;;;;;;12.05;6.35;;;;;;;;;;6249566;22;20020;-68
2023/04/03 04:26:20;;;;;;;13.38;6.72;;;;;;;;;;6274939;22;20118;-68
2023/04/03 04:28:47;;;;;;;12.35;7.38;;;;;;;;;;6276607;22;20019;-68
2023/04/03 04:31:17;;;;;;;14.57;8.27;;;;;;;;;;6248258;22;20020;-68
2023/04/03 04:33:45;;;;;;;13.90;7.60;;;;;;;;;;6276106;22;20041;-69
2023/04/03 04:36:15;;;;;;;13.52;8.15;;;;;;;;;;6248653;22;20043;-67
2023/04/03 04:38:45;;;;;;;16.45;9.18;;;;;;;;;;6248938;22;20026;-67
2023/04/03 04:41:15;;;;;;;12.95;8.93;;;;;;;;;;6249133;22;20074;-67
2023/04/03 04:43:44;;;;;;;13.82;8.95;;;;;;;;;;6224865;22;20026;-68
2023/04/03 04:46:11;;;;;;;13.80;8.70;;;;;;;;;;6249422;22;20449;-67
2023/04/03 04:48:45;;;;;;;12.57;8.20;;;;;;;;;;6249499;22;20043;-67
2023/04/03 04:51:13;;;;;;;15.70;8.52;;;;;;;;;;6249474;22;20023;-67
2023/04/03 04:53:42;;;;;;;17.05;7.80;;;;;;;;;;6249495;22;20019;-66
2023/04/03 04:56:12;;;;;;;12.88;8.90;;;;;;;;;;6249546;22;20095;-66
2023/04/03 04:58:41;;;;;;;11.70;8.07;;;;;;;;;;6249479;22;20457;-67
2023/04/03 05:01:10;;;;;;;8.43;6.60;;;;;;;;;;6248997;22;20395;-67
2023/04/03 05:04:06;;;;;;;10.50;6.82;;;;;;;;;;6260639;22;20538;-67
2023/04/03 05:06:34;;;;;;;16.90;8.20;;;;;;;;;;6249449;22;20091;-68
2023/04/03 05:09:06;;;;;;;22.75;13.43;;;;;;;;;;6249285;22;20023;-66
2023/04/03 05:11:34;;;;;;;14.35;9.00;;;;;;;;;;6249260;22;20020;-68
2023/04/03 05:14:06;;;;;;;11.38;6.80;;;;;;;;;;6249341;22;20445;-67
2023/04/03 05:16:35;;;;;;;9.27;6.07;;;;;;;;;;6249430;22;20022;-68
2023/04/03 05:19:03;;;;;;;10.73;6.30;;;;;;;;;;6249148;22;20069;-68
2023/04/03 05:21:32;;;;;;;8.32;6.07;;;;;;;;;;6249167;22;20031;-67
2023/04/03 05:24:04;;;;;;;6.28;5.00;;;;;;;;;;6276463;22;20090;-67
2023/04/03 05:26:34;;;;;;;7.80;5.53;;;;;;;;;;6249592;22;20103;-67
2023/04/03 05:29:02;;;;;;;8.35;4.97;;;;;;;;;;6276348;22;20031;-67
2023/04/03 05:31:30;;;;;;;7.35;4.80;;;;;;;;;;6249346;22;20133;-67
2023/04/03 05:33:58;;;;;;;6.00;4.60;;;;;;;;;;6249376;22;20020;-67
2023/04/03 05:36:28;;;;;;;8.57;4.55;;;;;;;;;;6249068;22;20345;-67
2023/04/03 05:39:01;;;;;;;8.20;5.13;;;;;;;;;;6249036;22;20024;-67
2023/04/03 05:41:28;;;;;;;7.28;5.15;;;;;;;;;;6249143;22;20020;-68
2023/04/03 05:43:56;;;;;;;5.78;4.68;;;;;;;;;;6249014;22;20028;-68
2023/04/03 05:46:25;;;;;;;6.18;4.40;;;;;;;;;;6248979;22;20045;-67
2023/04/03 05:48:56;;;;;;;5.72;3.70;;;;;;;;;;6276111;22;20022;-67
2023/04/03 05:51:32;;;;;;;8.57;3.95;;;;;;;;;;6248953;22;20098;-69
2023/04/03 05:54:10;;;;;;;5.07;3.55;;;;;;;;;;6249019;22;20015;-68
2023/04/03 05:56:38;;;;;;;8.68;3.88;;;;;;;;;;6249220;22;20042;-69
2023/04/03 05:59:07;;;;;;;5.68;3.83;;;;;;;;;;6249357;22;20424;-68
2023/04/03 06:01:35;;;;;;;5.07;4.20;;;;;;;;;;6248889;22;20043;-68
2023/04/03 06:04:03;;;;;;;7.28;5.07;;;;;;;;;;6248918;22;20454;-68
2023/04/03 06:06:57;;;;;;;6.57;4.70;;;;;;;;;;6249238;22;20020;-68
2023/04/03 06:09:28;;;;;;;5.88;4.95;;;;;;;;;;6247143;22;20460;-67
2023/04/03 06:11:58;;;;;;;8.95;6.70;;;;;;;;;;6275930;22;20046;-68
2023/04/03 06:14:27;;;;;;;11.77;6.20;;;;;;;;;;6275979;22;20023;-68
2023/04/03 06:16:55;;;;;;;11.00;7.97;;;;;;;;;;6248463;22;20019;-68
2023/04/03 06:19:23;;;;;;;12.02;9.18;;;;;;;;;;6248864;22;20065;-68
2023/04/03 06:21:55;;;;;;;14.27;8.30;;;;;;;;;;6249014;22;20458;-68
2023/04/03 06:24:24;;;;;;;11.93;8.35;;;;;;;;;;6275671;22;20019;-68
2023/04/03 06:26:53;;;;;;;16.40;9.35;;;;;;;;;;6275937;22;20019;-68
2023/04/03 06:29:21;;;;;;;10.27;7.82;;;;;;;;;;6276316;22;20050;-68
2023/04/03 06:31:49;;;;;;;11.95;6.85;;;;;;;;;;6275978;22;20028;-68
2023/04/03 06:34:17;;;;;;;11.32;7.30;;;;;;;;;;6276125;22;20314;-68
2023/04/03 06:36:45;;;;;;;8.68;6.60;;;;;;;;;;6275734;22;20012;-68
2023/04/03 06:39:15;;;;;;;8.25;6.30;;;;;;;;;;6276265;22;20015;-68
2023/04/03 06:41:43;;;;;;;8.50;6.25;;;;;;;;;;6275712;22;20095;-67
2023/04/03 06:44:12;;;;;;;10.88;7.50;;;;;;;;;;6276067;22;20035;-67
2023/04/03 06:46:40;;;;;;;13.02;9.43;;;;;;;;;;6275883;22;20043;-68
2023/04/03 06:49:07;;;;;;;15.95;10.40;;;;;;;;;;6275735;22;20012;-68
2023/04/03 06:51:35;;;;;;;16.88;12.20;;;;;;;;;;6275656;22;20087;-66
2023/04/03 06:54:03;;;;;;;17.38;12.07;;;;;;;;;;6249031;22;20016;-68
2023/04/03 06:56:31;;;;;;;16.15;12.13;;;;;;;;;;6275440;22;20149;-68
2023/04/03 06:58:58;;;;;;;17.00;12.15;;;;;;;;;;6275548;22;20016;-68
2023/04/03 07:01:27;;;;;;;17.48;12.43;;;;;;;;;;6275569;22;20012;-67
2023/04/03 07:03:55;;;;;;;21.98;13.25;;;;;;;;;;6275587;22;20098;-67
2023/04/03 07:06:23;;;;;;;21.13;13.77;;;;;;;;;;6275999;22;20022;-68
2023/04/03 07:08:50;;;;;;;22.45;15.07;;;;;;;;;;6275611;22;20024;-68
2023/04/03 07:11:18;;;;;;;19.33;14.30;;;;;;;;;;6275791;22;20030;-68
2023/04/03 07:13:46;;;;;;;20.23;14.90;;;;;;;;;;6275769;22;20020;-68
2023/04/03 07:16:13;;;;;;;21.17;14.27;;;;;;;;;;6275946;22;20012;-68
2023/04/03 07:18:41;;;;;;;21.48;13.95;;;;;;;;;;6275698;22;20027;-68
2023/04/03 07:21:09;;;;;;;20.48;14.57;;;;;;;;;;6275880;22;20016;-68
2023/04/03 07:23:37;;;;;;;24.85;14.35;;;;;;;;;;6248865;22;20015;-68
2023/04/03 07:26:04;;;;;;;19.25;14.10;;;;;;;;;;6277737;22;20437;-68
2023/04/03 07:28:32;;;;;;;19.85;13.02;;;;;;;;;;6277534;22;20015;-68
2023/04/03 07:31:01;;;;;;;19.40;12.60;;;;;;;;;;6277821;22;20046;-68
2023/04/03 07:33:29;;;;;;;20.35;12.20;;;;;;;;;;6250626;22;20012;-68
2023/04/03 07:35:56;;;;;;;17.60;12.32;;;;;;;;;;6277321;22;20019;-68
2023/04/03 07:38:25;;;;;;;18.10;12.70;;;;;;;;;;6277351;22;20016;-68
2023/04/03 07:40:53;;;;;;;16.77;11.52;;;;;;;;;;6277424;22;20096;-68
2023/04/03 07:43:21;;;;;;;13.88;11.20;;;;;;;;;;6277217;22;20015;-68
2023/04/03 07:45:50;;;;;;;15.27;12.23;;;;;;;;;;6277405;22;20020;-68
2023/04/03 07:48:27;;;;;;;18.02;11.95;;;;;;;;;;6277322;22;20073;-68
2023/04/03 07:50:54;;;;;;;14.38;11.90;;;;;;;;;;6277569;22;20100;-68
2023/04/03 07:53:22;;;;;;;13.32;11.35;;;;;;;;;;6277120;22;20016;-68
2023/04/03 07:55:51;;;;;;;16.90;11.95;;;;;;;;;;6277158;22;20019;-68
2023/04/03 07:58:19;;;;;;;15.30;11.35;;;;;;;;;;6276953;22;20037;-67
2023/04/03 08:00:46;;;;;;;16.90;11.45;;;;;;;;;;6277085;22;20390;-67
2023/04/03 08:03:16;;;;;;;16.50;12.82;;;;;;;;;;6276973;22;20020;-67
2023/04/03 08:05:45;;;;;;;18.13;13.25;;;;;;;;;;6276904;22;20016;-66
2023/04/03 08:08:13;;;;;;;20.63;12.68;;;;;;;;;;6276675;22;20023;-66
2023/04/03 08:10:40;;;;;;;17.38;12.88;;;;;;;;;;6277000;22;20022;-66
2023/04/03 08:13:09;;;;;;;17.90;13.32;;;;;;;;;;6249692;22;20011;-66
2023/04/03 08:15:36;;;;;;;16.17;12.23;;;;;;;;;;6276805;22;20307;-67
2023/04/03 08:18:04;;;;;;;17.40;13.00;;;;;;;;;;6276808;22;20019;-67
2023/04/03 08:20:32;;;;;;;15.38;11.82;;;;;;;;;;6250161;22;20046;-66
2023/04/03 08:22:59;;;;;;;14.68;11.95;;;;;;;;;;6276925;22;20016;-67
2023/04/03 08:25:29;;;;;;;15.27;12.45;;;;;;;;;;6276781;22;20012;-67
2023/04/03 08:27:56;;;;;;;13.65;11.95;;;;;;;;;;6277105;22;20015;-67
2023/04/03 08:30:24;;;;;;;15.70;12.10;;;;;;;;;;6276836;22;20012;-67
2023/04/03 08:32:51;;;;;;;16.73;12.43;;;;;;;;;;6277112;22;20388;-67
2023/04/03 08:35:20;;;;;;;15.60;12.68;;;;;;;;;;6276483;22;20015;-67
2023/04/03 08:37:47;;;;;;;16.23;12.65;;;;;;;;;;6276614;22;20020;-67
2023/04/03 08:40:17;;;;;;;16.75;12.95;;;;;;;;;;6277099;22;20020;-67
2023/04/03 08:42:47;;;;;;;17.85;12.73;;;;;;;;;;6250038;22;20016;-68
2023/04/03 08:45:17;;;;;;;14.55;12.60;;;;;;;;;;6276758;22;20019;-67
2023/04/03 08:47:48;;;;;;;13.75;11.98;;;;;;;;;;6277078;22;20016;-67
2023/04/03 08:50:21;;;;;;;15.95;12.35;;;;;;;;;;6276689;22;20015;-67
2023/04/03 08:52:50;;;;;;;16.27;12.15;;;;;;;;;;6276491;22;20086;-68
2023/04/03 08:55:30;;;;;;;24.23;14.93;;;;;;;;;;6276717;22;20045;-67
2023/04/03 08:58:21;;;;;;;12.20;10.85;;;;;;;;;;6276356;22;20020;-68
2023/04/03 09:00:52;;;;;;;17.73;13.95;;;;;;;;;;6261868;22;20069;-68
2023/04/03 09:03:20;;;;;;;15.60;12.20;;;;;;;;;;6249399;22;20019;-68
2023/04/03 09:05:48;;;;;;;13.73;11.35;;;;;;;;;;6249765;22;20039;-67
2023/04/03 09:08:45;;;;;;;13.73;11.77;;;;;;;;;;6276474;22;20012;-67
2023/04/03 09:11:29;;;;;;;13.07;11.50;;;;;;;;;;6251087;22;20054;-68
2023/04/03 09:14:14;;;;;;;14.15;11.85;;;;;;;;;;6276915;22;20100;-68
2023/04/03 09:16:53;;;;;;;13.73;11.07;;;;;;;;;;6276341;22;20023;-68
2023/04/03 09:19:33;;;;;;;12.85;10.35;;;;;;;;;;6276309;22;20026;-68
2023/04/03 09:22:04;;;;;;;13.70;10.68;;;;;;;;;;6249837;22;20044;-69
2023/04/03 09:24:32;;;;;;;12.57;9.90;;;;;;;;;;6276598;22;20085;-68
2023/04/03 09:27:02;;;;;;;12.07;10.60;;;;;;;;;;6276368;22;20042;-68
2023/04/03 09:29:30;;;;;;;10.90;9.75;;;;;;;;;;6276358;22;20015;-67
2023/04/03 09:32:00;;;;;;;10.15;9.07;;;;;;;;;;6249269;22;20016;-68
2023/04/03 09:34:30;;;;;;;9.88;8.88;;;;;;;;;;6276174;22;20027;-67
2023/04/03 09:37:08;;;;;;;12.38;9.15;;;;;;;;;;6249202;22;20087;-68
2023/04/03 09:39:53;;;;;;;12.25;8.65;;;;;;;;;;6276076;22;20376;-68
2023/04/03 09:42:22;;;;;;;9.90;8.75;;;;;;;;;;6276296;22;20022;-67
2023/04/03 09:45:00;;;;;;;11.20;9.98;;;;;;;;;;6276027;22;20073;-68
2023/04/03 09:47:29;;;;;;;11.23;9.63;;;;;;;;;;6249409;22;20468;-68
2023/04/03 09:50:10;;;;;;;10.60;8.15;;;;;;;;;;6275975;22;20153;-68
2023/04/03 09:52:37;;;;;;;10.77;7.53;;;;;;;;;;6276021;22;20038;-68
2023/04/03 09:55:26;;;;;;;8.75;7.03;;;;;;;;;;6276045;22;20450;-68
2023/04/03 09:57:54;;;;;;;8.00;6.97;;;;;;;;;;6275918;22;20016;-67
2023/04/03 10:00:23;;;;;;;10.77;7.50;;;;;;;;;;6275976;22;20070;-68
2023/04/03 10:02:52;;;;;;;8.00;6.95;;;;;;;;;;6275907;22;20020;-68
2023/04/03 10:05:29;;;;;;;8.23;7.18;;;;;;;;;;6276169;22;20429;-68
2023/04/03 10:08:10;;;;;;;9.25;7.32;;;;;;;;;;6276058;22;20016;-67
2023/04/03 10:10:38;;;;;;;8.13;6.90;;;;;;;;;;6276063;22;20452;-68
2023/04/03 10:13:24;;;;;;;9.43;7.32;;;;;;;;;;6249683;22;20016;-68
2023/04/03 10:15:56;;;;;;;9.63;7.80;;;;;;;;;;6276043;22;20085;-68
2023/04/03 10:18:38;;;;;;;8.35;7.55;;;;;;;;;;6275943;22;20438;-67
2023/04/03 10:21:10;;;;;;;9.88;7.45;;;;;;;;;;6275927;22;20018;-68
2023/04/03 10:23:55;;;;;;;8.45;7.07;;;;;;;;;;6276299;22;20024;-68
2023/04/03 10:26:29;;;;;;;9.50;8.13;;;;;;;;;;6249078;22;20460;-67
2023/04/03 10:29:15;;;;;;;8.82;7.93;;;;;;;;;;6275888;22;20022;-68
2023/04/03 10:31:49;;;;;;;8.98;7.60;;;;;;;;;;6275853;22;20095;-68
2023/04/03 10:34:29;;;;;;;8.40;7.60;;;;;;;;;;6275673;22;20020;-67
2023/04/03 10:36:56;;;;;;;10.77;7.93;;;;;;;;;;6275557;22;20450;-69
2023/04/03 10:39:26;;;;;;;10.40;7.60;;;;;;;;;;6275600;22;20027;-67
2023/04/03 10:42:00;;;;;;;11.13;8.50;;;;;;;;;;6275772;22;20070;-67
2023/04/03 10:45:02;;;;;;;11.27;9.63;;;;;;;;;;6275889;22;20046;-67
2023/04/03 10:47:41;;;;;;;8.07;6.85;;;;;;;;;;6275855;22;20040;-67
2023/04/03 10:50:23;;;;;;;8.07;7.25;;;;;;;;;;6275976;22;20019;-68
2023/04/03 10:52:56;;;;;;;8.45;7.38;;;;;;;;;;6275770;22;20011;-68
2023/04/03 10:55:30;;;;;;;10.10;6.65;;;;;;;;;;6275922;22;20026;-68
2023/04/03 10:57:59;;;;;;;7.22;6.53;;;;;;;;;;6275411;22;20438;-69
2023/04/03 11:00:56;;;;;;;7.82;7.03;;;;;;;;;;6250787;22;20026;-68
2023/04/03 11:03:30;;;;;;;7.80;7.00;;;;;;;;;;6258774;22;20066;-66
2023/04/03 11:05:58;;;;;;;;;;;;;;;;;;6278146;22;20082;-68
2023/04/03 11:08:29;;;;;;;10.80;7.60;;;;;;;;;;6277595;22;19969;-67
2023/04/03 11:11:00;;;;;;;6.82;6.22;;;;;;;;;;6277601;22;20016;-68
2023/04/03 11:13:33;;;;;;;7.10;6.40;;;;;;;;;;6250770;22;20027;-67
2023/04/03 11:16:03;;;;;;;7.10;6.40;;;;;;;;;;6277562;22;20016;-67
2023/04/03 11:18:49;;;;;;;7.50;6.80;;;;;;;;;;6277449;22;20361;-67
2023/04/03 11:21:27;;;;;;;8.23;7.35;;;;;;;;;;6277400;22;20099;-67
2023/04/03 11:23:58;;;;;;;7.20;6.50;;;;;;;;;;6250593;22;20024;-67
2023/04/03 11:26:28;;;;;;;7.85;7.03;;;;;;;;;;6277555;22;20011;-67
2023/04/03 11:29:01;;;;;;;7.95;7.15;;;;;;;;;;6251089;22;20032;-66
2023/04/03 11:31:28;;;;;;;7.80;7.00;;;;;;;;;;6277394;22;20012;-67
2023/04/03 11:34:08;;;;;;;8.02;7.15;;;;;;;;;;6277399;22;20069;-67
2023/04/03 11:36:41;;;;;;;9.13;7.20;;;;;;;;;;6250599;22;20016;-67
2023/04/03 11:39:23;;;;;;;9.00;7.60;;;;;;;;;;6250533;22;20441;-67
2023/04/03 11:41:50;;;;;;;8.50;7.55;;;;;;;;;;6250497;22;20381;-68
2023/04/03 11:44:36;;;;;;;9.35;6.70;;;;;;;;;;6250321;22;20071;-67
2023/04/03 11:47:05;;;;;;;7.88;6.60;;;;;;;;;;6277419;22;20015;-67
2023/04/03 11:49:52;;;;;;;8.50;7.35;;;;;;;;;;6277375;22;20496;-68
2023/04/03 11:52:38;;;;;;;8.48;6.63;;;;;;;;;;6277792;22;20077;-68
2023/04/03 11:55:21;;;;;;;9.18;7.30;;;;;;;;;;6277240;22;20332;-68
2023/04/03 11:57:58;;;;;;;7.93;6.65;;;;;;;;;;6277222;22;20019;-67
2023/04/03 12:00:46;;;;;;;9.80;6.53;;;;;;;;;;6277182;22;20015;-67
2023/04/03 12:05:57;;;;;;;9.60;6.95;;;;;;;;;;6277175;22;20098;-68
2023/04/03 12:08:26;;;;;;;7.60;5.97;;;;;;;;;;6277137;22;20020;-68
2023/04/03 12:11:20;;;;;;;6.80;5.50;;;;;;;;;;6276907;22;20082;-68
2023/04/03 12:13:57;;;;;;;8.23;5.57;;;;;;;;;;6242362;22;20024;-67
2023/04/03 12:16:27;;;;;;;8.40;6.05;;;;;;;;;;6276978;22;20392;-67
2023/04/03 12:19:03;;;;;;;6.47;5.07;;;;;;;;;;6276523;22;20020;-67
2023/04/03 12:21:36;;;;;;;8.48;5.43;;;;;;;;;;6276987;22;20367;-68
2023/04/03 12:24:04;;;;;;;6.57;5.20;;;;;;;;;;6277128;22;20023;-68
2023/04/03 12:26:35;;;;;;;5.97;5.30;;;;;;;;;;6276911;22;20094;-68
2023/04/03 12:29:21;;;;;;;7.65;5.05;;;;;;;;;;6276543;22;20015;-68
2023/04/03 12:32:07;;;;;;;19.38;11.77;;;;;;;;;;6249669;22;20030;-68
2023/04/03 12:34:54;;;;;;;6.25;4.80;;;;;;;;;;6276857;22;20023;-68
2023/04/03 12:37:22;;;;;;;23.38;15.40;;;;;;;;;;6261567;22;20020;-68
2023/04/03 12:40:08;;;;;;;7.30;4.78;;;;;;;;;;6277508;22;20042;-68
2023/04/03 12:42:35;;;;;;;8.27;4.78;;;;;;;;;;6276742;22;20020;-68
2023/04/03 12:45:11;;;;;;;6.78;4.43;;;;;;;;;;6276712;22;20016;-68
2023/04/03 12:47:42;;;;;;;13.52;7.80;;;;;;;;;;6277030;22;20090;-68
2023/04/03 12:50:29;;;;;;;5.78;4.28;;;;;;;;;;6276771;22;20050;-68
2023/04/03 12:52:57;;;;;;;4.93;3.75;;;;;;;;;;6276651;22;20016;-68
2023/04/03 12:55:25;;;;;;;5.80;3.80;;;;;;;;;;6276628;22;20445;-68
2023/04/03 12:57:52;;;;;;;4.75;3.70;;;;;;;;;;6276767;22;20040;-68
2023/04/03 13:00:28;;;;;;;6.15;4.15;;;;;;;;;;6276679;22;20020;-67
2023/04/03 13:02:56;;;;;;;5.32;3.80;;;;;;;;;;6276707;22;20020;-68
2023/04/03 13:05:24;;;;;;;7.38;4.55;;;;;;;;;;6276785;22;20023;-68
2023/04/03 13:07:58;;;;;;;6.85;4.95;;;;;;;;;;6276664;22;20047;-68
2023/04/03 13:10:26;;;;;;;5.90;5.15;;;;;;;;;;6276427;22;20062;-68
2023/04/03 13:12:55;;;;;;;8.98;6.72;;;;;;;;;;6275877;22;20022;-68
2023/04/03 13:15:26;;;;;;;10.32;7.00;;;;;;;;;;6276246;22;20438;-67
2023/04/03 13:17:54;;;;;;;9.55;7.82;;;;;;;;;;6276197;22;20023;-67
2023/04/03 13:20:26;;;;;;;10.48;8.02;;;;;;;;;;6276047;22;20020;-69
2023/04/03 13:22:53;;;;;;;10.18;7.38;;;;;;;;;;6275830;22;20031;-67
2023/04/03 13:25:22;;;;;;;11.30;9.10;;;;;;;;;;6276390;22;20012;-67
2023/04/03 13:27:50;;;;;;;9.98;7.72;;;;;;;;;;6276472;22;20012;-67
2023/04/03 13:30:26;;;;;;;12.05;8.35;;;;;;;;;;6276300;22;20156;-67
2023/04/03 13:32:54;;;;;;;12.05;8.63;;;;;;;;;;6276225;22;20099;-67
2023/04/03 13:35:27;;;;;;;11.18;9.52;;;;;;;;;;6276324;22;20026;-67
2023/04/03 13:38:00;;;;;;;9.18;6.72;;;;;;;;;;6276336;22;20022;-67
2023/04/03 13:40:28;;;;;;;11.55;8.02;;;;;;;;;;6276110;22;20067;-67
2023/04/03 13:43:18;;;;;;;10.52;8.07;;;;;;;;;;6275741;22;20073;-67
2023/04/03 13:46:06;;;;;;;8.10;7.15;;;;;;;;;;6248872;22;20098;-67
2023/04/03 13:48:41;;;;;;;11.43;7.57;;;;;;;;;;6276127;22;20043;-67
2023/04/03 13:51:09;;;;;;;;;;;;;;;;;;6276623;22;20021;-67
2023/04/03 13:53:43;;;;;;;19.77;11.73;;;;;;;;;;6276100;22;20333;-66
2023/04/03 13:56:18;;;;;;;11.57;8.37;;;;;;;;;;6276089;22;20066;-68
2023/04/03 13:59:00;;;;;;;18.45;13.68;;;;;;;;;;6275794;22;20070;-69
2023/04/03 14:01:34;;;;;;;15.32;12.52;;;;;;;;;;6276002;22;20043;-69
2023/04/03 14:04:10;;;;;;;16.83;11.98;;;;;;;;;;6275825;22;20450;-68
2023/04/03 14:06:37;;;;;;;15.80;11.98;;;;;;;;;;6249017;22;20066;-68
2023/04/03 14:09:05;;;;;;;13.10;10.07;;;;;;;;;;6276022;22;20449;-67
2023/04/03 14:11:34;;;;;;;14.55;11.15;;;;;;;;;;6273174;22;20023;-67
2023/04/03 14:14:04;;;;;;;13.23;9.65;;;;;;;;;;6275702;22;20323;-67
2023/04/03 14:16:35;;;;;;;14.10;10.73;;;;;;;;;;6275455;22;20472;-66
2023/04/03 14:19:03;;;;;;;11.90;9.88;;;;;;;;;;6274687;22;20020;-66
2023/04/03 14:21:32;;;;;;;12.20;8.40;;;;;;;;;;6275383;22;20016;-66
2023/04/03 14:23:59;;;;;;;12.95;9.85;;;;;;;;;;6275765;22;20043;-66
2023/04/03 14:26:30;;;;;;;13.55;10.30;;;;;;;;;;6248951;22;20035;-66
2023/04/03 14:28:57;;;;;;;13.40;10.65;;;;;;;;;;6275216;22;20016;-65
2023/04/03 14:31:25;;;;;;;15.13;10.63;;;;;;;;;;6275515;22;20011;-67
2023/04/03 14:33:53;;;;;;;12.85;9.70;;;;;;;;;;6276795;22;20069;-66
2023/04/03 14:36:22;;;;;;;10.50;9.00;;;;;;;;;;6277820;22;20322;-67
2023/04/03 14:38:50;;;;;;;16.48;12.43;;;;;;;;;;6277880;22;20389;-66
2023/04/03 14:41:19;;;;;;;17.55;10.35;;;;;;;;;;6277402;22;20046;-67
2023/04/03 14:43:47;;;;;;;15.48;10.95;;;;;;;;;;6277639;22;20016;-68
2023/04/03 14:46:16;;;;;;;12.70;9.50;;;;;;;;;;6277218;22;20016;-67
2023/04/03 14:48:45;;;;;;;13.32;10.93;;;;;;;;;;6277572;22;20073;-67
2023/04/03 14:51:13;;;;;;;10.40;8.80;;;;;;;;;;6276981;22;20011;-67
2023/04/03 14:53:41;;;;;;;11.10;8.77;;;;;;;;;;6277736;22;20020;-67
2023/04/03 14:56:15;;;;;;;11.25;8.63;;;;;;;;;;6225766;22;20461;-67
2023/04/03 14:58:43;;;;;;;10.20;8.52;;;;;;;;;;6277672;22;20453;-68